createdAt,value
2022-10-30T00:00:30.208Z,97674.75
2022-10-30T00:02:58.103Z,97717.34
2022-10-30T00:05:25.104Z,97775.91
2022-10-30T00:07:51.850Z,97809.69
2022-10-30T00:10:20.403Z,97877.28
2022-10-30T00:12:47.137Z,97918.28
2022-10-30T00:15:13.831Z,97921.38
2022-10-30T00:17:40.631Z,97979.41
2022-10-30T00:20:08.707Z,98007.59
2022-10-30T00:22:36.699Z,98009.41
2022-10-30T00:25:04.952Z,98047.09
2022-10-30T00:27:31.752Z,98063.34
2022-10-30T00:29:58.378Z,98067.38
2022-10-30T00:32:25.058Z,98106.41
2022-10-30T00:34:51.699Z,98114.72
2022-10-30T00:37:18.438Z,98142.00
2022-10-30T00:39:45.098Z,98180.47
2022-10-30T00:42:16.188Z,98192.06
2022-10-30T00:44:47.869Z,98207.59
2022-10-30T00:47:23.650Z,98196.81
2022-10-30T00:50:16.882Z,98172.06
2022-10-30T00:52:55.079Z,98164.19
2022-10-30T00:55:29.383Z,98117.41
2022-10-30T00:57:59.383Z,98113.63
2022-10-30T01:00:28.109Z,98074.50
2022-10-30T01:02:57.945Z,98045.84
2022-10-30T01:05:27.781Z,98041.44
2022-10-30T01:07:54.757Z,98007.47
2022-10-30T01:10:21.971Z,97971.22
2022-10-30T01:12:53.665Z,97995.66
2022-10-30T01:15:28.487Z,97985.38
2022-10-30T01:18:29.882Z,97972.97
2022-10-30T01:21:28.646Z,97975.06
2022-10-30T01:24:11.908Z,97962.47
2022-10-30T01:27:29.861Z,97971.34
2022-10-30T01:30:49.667Z,97968.63
2022-10-30T01:33:47.263Z,97926.31
2022-10-30T01:36:26.260Z,97915.63
2022-10-30T01:39:05.047Z,97892.91
2022-10-30T01:41:33.954Z,97881.19
2022-10-30T01:44:08.290Z,97865.97
2022-10-30T01:46:56.557Z,97869.94
2022-10-30T01:49:56.898Z,97884.94
2022-10-30T01:53:02.495Z,97897.72
2022-10-30T01:55:31.974Z,97875.34
2022-10-30T01:58:02.564Z,97848.91
2022-10-30T02:00:29.210Z,97821.09
2022-10-30T02:02:56.169Z,97770.59
2022-10-30T02:05:36.677Z,97770.81
2022-10-30T02:08:03.412Z,97801.22
2022-10-30T02:10:30.811Z,97857.84
2022-10-30T02:12:57.372Z,97892.16
2022-10-30T02:15:24.336Z,97911.06
2022-10-30T02:17:50.845Z,97915.00
2022-10-30T02:20:18.550Z,97932.38
2022-10-30T02:22:45.257Z,97959.34
2022-10-30T02:25:14.209Z,97956.72
2022-10-30T02:27:40.702Z,97979.38
2022-10-30T02:30:09.785Z,97999.28
2022-10-30T02:32:36.304Z,98006.41
2022-10-30T02:35:02.826Z,97995.63
2022-10-30T02:37:29.364Z,97923.19
2022-10-30T02:39:55.943Z,97865.84
2022-10-30T02:42:23.335Z,97855.56
2022-10-30T02:44:49.815Z,97815.97
2022-10-30T02:47:16.352Z,97789.25
2022-10-30T02:49:42.837Z,97789.19
2022-10-30T02:52:09.391Z,97744.72
2022-10-30T02:54:36.051Z,97702.00
2022-10-30T02:57:02.769Z,97674.97
2022-10-30T02:59:30.129Z,97639.91
2022-10-30T03:01:57.461Z,97614.41
2022-10-30T03:04:25.303Z,97627.97
2022-10-30T03:06:51.793Z,97608.56
2022-10-30T03:09:18.309Z,97556.75
2022-10-30T03:11:44.771Z,97517.47
2022-10-30T03:14:11.515Z,97491.41
2022-10-30T03:16:38.009Z,97461.00
2022-10-30T03:19:05.173Z,97477.16
2022-10-30T03:21:31.631Z,97453.50
2022-10-30T03:23:58.267Z,97434.47
2022-10-30T03:26:24.809Z,97407.94
2022-10-30T03:28:51.568Z,97401.59
2022-10-30T03:31:18.866Z,97374.31
2022-10-30T03:33:45.679Z,97369.59
2022-10-30T03:36:13.111Z,97366.09
2022-10-30T03:38:39.627Z,97358.22
2022-10-30T03:41:06.496Z,97360.09
2022-10-30T03:43:35.254Z,97353.78
2022-10-30T03:46:01.787Z,97324.75
2022-10-30T03:48:30.482Z,97319.53
2022-10-30T03:50:57.759Z,97303.63
2022-10-30T03:53:26.336Z,97274.44
2022-10-30T03:55:53.577Z,97270.63
2022-10-30T03:58:20.337Z,97268.25
2022-10-30T04:00:47.543Z,97249.66
2022-10-30T04:03:14.685Z,97253.56
2022-10-30T04:05:41.190Z,97236.72
2022-10-30T04:08:11.058Z,97218.22
2022-10-30T04:10:37.709Z,97219.66
2022-10-30T04:13:06.164Z,97214.63
2022-10-30T04:15:33.013Z,97190.78
2022-10-30T04:17:59.948Z,97170.78
2022-10-30T04:20:28.101Z,97177.09
2022-10-30T04:23:01.611Z,97164.13
2022-10-30T04:25:29.291Z,97171.56
2022-10-30T04:27:56.342Z,97162.88
2022-10-30T04:30:25.212Z,97150.28
2022-10-30T04:32:52.832Z,97141.91
2022-10-30T04:35:20.307Z,97127.88
2022-10-30T04:38:05.488Z,97116.34
2022-10-30T04:40:33.543Z,97110.81
2022-10-30T04:43:02.595Z,97124.72
2022-10-30T04:45:29.424Z,97115.75
2022-10-30T04:48:02.909Z,97108.78
2022-10-30T04:50:29.823Z,97118.75
2022-10-30T04:53:00.460Z,97098.69
2022-10-30T04:55:27.422Z,97089.38
2022-10-30T04:57:58.246Z,97097.28
2022-10-30T05:00:25.749Z,97093.66
2022-10-30T05:02:54.480Z,97083.69
2022-10-30T05:05:21.620Z,97110.84
2022-10-30T05:07:48.199Z,97119.84
2022-10-30T05:10:20.759Z,97099.50
2022-10-30T05:12:47.431Z,97092.25
2022-10-30T05:15:14.537Z,97081.69
2022-10-30T05:17:43.935Z,97065.13
2022-10-30T05:20:13.481Z,97068.28
2022-10-30T05:22:42.795Z,97051.56
2022-10-30T05:25:09.487Z,97034.81
2022-10-30T05:27:38.151Z,97026.94
2022-10-30T05:30:04.747Z,97032.00
2022-10-30T05:32:31.264Z,97002.00
2022-10-30T05:34:57.769Z,97001.84
2022-10-30T05:37:24.772Z,97002.84
2022-10-30T05:39:51.222Z,97014.69
2022-10-30T05:42:20.020Z,97021.78
2022-10-30T05:45:02.650Z,97056.66
2022-10-30T05:47:31.423Z,97054.59
2022-10-30T05:49:57.995Z,97044.66
2022-10-30T05:52:24.512Z,97046.84
2022-10-30T05:54:51.101Z,97042.13
2022-10-30T05:57:17.630Z,97020.53
2022-10-30T05:59:46.207Z,97019.09
2022-10-30T06:02:14.490Z,97015.16
2022-10-30T06:04:41.203Z,97018.75
2022-10-30T06:07:07.837Z,97010.56
2022-10-30T06:09:34.320Z,97022.25
2022-10-30T06:12:00.780Z,97024.50
2022-10-30T06:14:29.723Z,97011.53
2022-10-30T06:16:56.311Z,97019.09
2022-10-30T06:19:22.963Z,97030.47
2022-10-30T06:21:49.634Z,97015.34
2022-10-30T06:24:16.116Z,97007.91
2022-10-30T06:26:42.603Z,97014.22
2022-10-30T06:29:09.069Z,97002.56
2022-10-30T06:31:37.559Z,96984.88
2022-10-30T06:34:04.870Z,96985.53
2022-10-30T06:36:31.371Z,97051.56
2022-10-30T06:38:58.023Z,97052.06
2022-10-30T06:41:27.549Z,97036.13
2022-10-30T06:43:56.782Z,97019.78
2022-10-30T06:46:25.783Z,97002.25
2022-10-30T06:48:57.024Z,97009.69
2022-10-30T06:51:23.538Z,96982.09
2022-10-30T06:53:50.125Z,96979.53
2022-10-30T06:56:16.767Z,97018.03
2022-10-30T06:58:43.892Z,97037.06
2022-10-30T07:01:10.473Z,97086.13
2022-10-30T07:03:37.971Z,97115.03
2022-10-30T07:06:05.083Z,97086.63
2022-10-30T07:08:36.403Z,97097.00
2022-10-30T07:11:03.474Z,97092.13
2022-10-30T07:13:29.923Z,97078.00
2022-10-30T07:21:53.575Z,96996.91
2022-10-30T07:24:21.250Z,96995.66
2022-10-30T07:26:48.190Z,97010.31
2022-10-30T07:29:14.798Z,97000.06
2022-10-30T07:32:29.919Z,97001.47
2022-10-30T07:45:12.075Z,96960.63
2022-10-30T07:55:23.804Z,96931.47
2022-10-30T07:57:50.576Z,97001.16
2022-10-30T08:00:17.536Z,97013.13
2022-10-30T08:02:45.143Z,97001.94
2022-10-30T08:05:12.619Z,96978.72
2022-10-30T08:07:41.619Z,96989.59
2022-10-30T08:10:09.498Z,96978.03
2022-10-30T08:16:05.216Z,96950.72
2022-10-30T08:18:31.805Z,96926.63
2022-10-30T08:20:58.317Z,96906.44
2022-10-30T08:23:24.770Z,96885.53
2022-10-30T08:25:52.382Z,96867.81
2022-10-30T08:28:19.001Z,96877.00
2022-10-30T08:30:45.527Z,96870.00
2022-10-30T08:33:15.501Z,96871.13
2022-10-30T08:35:49.392Z,96915.94
2022-10-30T08:38:16.474Z,96939.25
2022-10-30T08:40:43.532Z,96971.13
2022-10-30T08:43:10.834Z,96989.50
2022-10-30T08:45:37.543Z,96991.13
2022-10-30T08:48:05.091Z,97034.16
2022-10-30T08:50:32.410Z,97079.09
2022-10-30T08:53:06.245Z,97104.16
2022-10-30T08:55:33.146Z,97168.22
2022-10-30T08:57:59.974Z,97197.50
2022-10-30T09:00:27.036Z,97214.16
2022-10-30T09:02:54.696Z,97287.72
2022-10-30T09:05:22.624Z,97321.59
2022-10-30T09:07:49.179Z,97366.66
2022-10-30T09:10:16.113Z,97425.84
2022-10-30T09:12:45.202Z,97445.06
2022-10-30T09:15:11.682Z,97477.91
2022-10-30T09:17:38.304Z,97536.63
2022-10-30T09:20:05.171Z,97577.25
2022-10-30T09:22:31.654Z,97669.53
2022-10-30T09:25:00.459Z,97766.81
2022-10-30T09:27:27.651Z,97831.00
2022-10-30T09:29:54.155Z,97903.66
2022-10-30T09:32:20.743Z,97942.19
2022-10-30T09:34:47.524Z,97972.50
2022-10-30T09:37:16.807Z,98008.81
2022-10-30T09:39:43.431Z,98036.91
2022-10-30T09:42:24.901Z,98019.44
2022-10-30T09:45:08.092Z,98026.22
2022-10-30T09:47:54.904Z,98123.41
2022-10-30T09:50:38.952Z,98164.03
2022-10-30T09:53:12.173Z,98225.19
2022-10-30T09:55:46.425Z,98230.75
2022-10-30T09:58:31.468Z,98232.56
2022-10-30T10:01:16.455Z,98194.06
2022-10-30T10:06:18.859Z,98269.72
2022-10-30T10:08:48.102Z,98295.94
2022-10-30T10:11:17.500Z,98304.84
2022-10-30T10:13:48.069Z,98335.03
2022-10-30T10:16:20.458Z,98348.06
2022-10-30T10:18:57.588Z,98347.75
2022-10-30T10:21:27.906Z,98334.59
2022-10-30T10:24:02.707Z,98327.78
2022-10-30T10:26:44.250Z,98322.66
2022-10-30T10:29:22.997Z,98370.34
2022-10-30T10:32:02.764Z,98405.03
2022-10-30T10:34:29.234Z,98416.50
2022-10-30T10:37:11.166Z,98431.91
2022-10-30T10:39:51.174Z,98445.44
2022-10-30T10:42:42.646Z,98452.63
2022-10-30T10:45:21.334Z,98494.63
2022-10-30T10:47:47.995Z,98478.56
2022-10-30T10:50:32.738Z,98455.16
2022-10-30T10:53:01.668Z,98449.13
2022-10-30T10:55:32.169Z,98445.28
2022-10-30T10:58:04.558Z,98454.66
2022-10-30T11:00:31.671Z,98447.94
2022-10-30T11:03:05.414Z,98462.88
2022-10-30T11:05:31.912Z,98495.22
2022-10-30T11:08:01.573Z,98484.06
2022-10-30T11:10:28.373Z,98485.97
2022-10-30T11:12:57.791Z,98488.19
2022-10-30T11:15:33.658Z,98505.38
2022-10-30T11:20:40.129Z,98500.09
2022-10-30T11:23:26.947Z,98533.41
2022-10-30T11:25:53.594Z,98536.41
2022-10-30T11:28:32.171Z,98572.47
2022-10-30T11:31:17.042Z,98608.81
2022-10-30T11:33:46.329Z,98620.63
2022-10-30T11:36:15.967Z,98655.34
2022-10-30T11:38:42.829Z,98630.66
2022-10-30T11:41:12.709Z,98646.72
2022-10-30T11:43:40.236Z,98626.50
2022-10-30T11:46:13.059Z,98618.38
2022-10-30T11:48:45.559Z,98662.66
2022-10-30T11:51:14.734Z,98655.34
2022-10-30T11:53:43.014Z,98648.81
2022-10-30T11:56:22.949Z,98634.31
2022-10-30T11:58:53.843Z,98614.22
2022-10-30T12:01:24.970Z,98612.31
2022-10-30T12:03:54.089Z,98596.34
2022-10-30T12:06:23.537Z,98625.69
2022-10-30T12:09:02.126Z,98637.47
2022-10-30T12:11:30.728Z,98643.97
2022-10-30T12:13:59.706Z,98643.53
2022-10-30T12:16:29.139Z,98642.53
2022-10-30T12:19:06.901Z,98686.91
2022-10-30T12:21:41.163Z,98701.09
2022-10-30T12:24:12.954Z,98711.78
2022-10-30T12:26:40.239Z,98735.38
2022-10-30T12:29:12.608Z,98713.38
2022-10-30T12:31:48.257Z,98767.75
2022-10-30T12:34:20.683Z,98765.06
2022-10-30T12:37:00.747Z,98786.75
2022-10-30T12:39:36.071Z,98791.16
2022-10-30T12:42:06.874Z,98780.53
2022-10-30T12:44:37.774Z,98791.16
2022-10-30T12:47:04.291Z,98766.81
2022-10-30T12:49:39.826Z,98799.28
2022-10-30T12:52:19.947Z,98811.13
2022-10-30T12:54:55.081Z,98784.50
2022-10-30T12:57:25.257Z,98745.91
2022-10-30T12:59:51.853Z,98722.16
2022-10-30T13:02:29.756Z,98707.78
2022-10-30T13:05:02.982Z,98687.84
2022-10-30T13:07:32.001Z,98683.41
2022-10-30T13:10:01.344Z,98683.41
2022-10-30T13:12:32.061Z,98693.75
2022-10-30T13:15:02.137Z,98680.53
2022-10-30T13:17:29.217Z,98671.13
2022-10-30T13:19:55.852Z,98662.34
2022-10-30T13:22:28.235Z,98681.34
2022-10-30T13:25:14.355Z,98662.19
2022-10-30T13:28:01.719Z,98659.47
2022-10-30T13:30:34.401Z,98644.19
2022-10-30T13:33:01.194Z,98640.34
2022-10-30T13:35:35.330Z,98633.34
2022-10-30T13:38:04.788Z,98621.06
2022-10-30T13:40:43.578Z,98627.78
2022-10-30T13:43:25.811Z,98617.44
2022-10-30T13:46:12.071Z,98598.94
2022-10-30T13:48:58.375Z,98582.84
2022-10-30T13:51:30.962Z,98566.56
2022-10-30T13:54:13.754Z,98569.31
2022-10-30T13:56:42.174Z,98545.09
2022-10-30T13:59:11.479Z,98542.38
2022-10-30T14:01:38.089Z,98534.91
2022-10-30T14:04:07.674Z,98528.69
2022-10-30T14:06:37.011Z,98523.44
2022-10-30T14:09:19.578Z,98508.97
2022-10-30T14:11:46.055Z,98484.59
2022-10-30T14:14:34.109Z,98448.47
2022-10-30T14:17:14.677Z,98414.56
2022-10-30T14:20:00.033Z,98398.19
2022-10-30T14:22:26.434Z,98385.63
2022-10-30T14:24:52.927Z,98357.75
2022-10-30T14:27:26.582Z,98370.16
2022-10-30T14:29:53.555Z,98314.38
2022-10-30T14:32:20.026Z,98253.66
2022-10-30T14:34:57.582Z,98263.03
2022-10-30T14:37:24.072Z,98286.09
2022-10-30T14:39:51.715Z,98260.66
2022-10-30T14:42:25.356Z,98250.50
2022-10-30T14:45:07.046Z,98191.69
2022-10-30T14:47:36.509Z,98147.56
2022-10-30T14:50:13.950Z,98178.50
2022-10-30T14:52:40.396Z,98165.25
2022-10-30T14:55:39.165Z,98158.78
2022-10-30T14:58:05.634Z,98175.56
2022-10-30T15:00:42.100Z,98156.63
2022-10-30T15:03:09.352Z,98116.47
2022-10-30T15:05:36.550Z,98092.88
2022-10-30T15:08:18.562Z,98091.50
2022-10-30T15:10:57.614Z,98047.41
2022-10-30T15:13:24.235Z,98019.88
2022-10-30T15:16:01.246Z,98013.16
2022-10-30T15:18:30.820Z,98008.19
2022-10-30T15:21:04.314Z,98014.94
2022-10-30T15:23:32.960Z,97982.38
2022-10-30T15:26:04.895Z,97937.44
2022-10-30T15:28:36.122Z,97925.06
2022-10-30T15:31:04.726Z,97847.16
2022-10-30T15:33:32.566Z,97800.81
2022-10-30T15:35:59.602Z,97796.03
2022-10-30T15:38:26.184Z,97776.97
2022-10-30T15:40:57.893Z,97764.19
2022-10-30T15:43:28.777Z,97798.03
2022-10-30T15:45:56.092Z,97741.63
2022-10-30T15:48:24.464Z,97697.69
2022-10-30T15:50:58.348Z,97648.63
2022-10-30T15:53:27.821Z,97590.44
2022-10-30T15:55:58.232Z,97552.47
2022-10-30T15:58:24.900Z,97527.31
2022-10-30T16:00:55.483Z,97508.19
2022-10-30T16:03:22.422Z,97536.81
2022-10-30T16:05:49.876Z,97585.53
2022-10-30T16:08:23.595Z,97578.44
2022-10-30T16:10:53.311Z,97579.50
2022-10-30T16:13:23.930Z,97564.63
2022-10-30T16:15:51.162Z,97535.78
2022-10-30T16:18:25.231Z,97547.75
2022-10-30T16:20:53.529Z,97510.97
2022-10-30T16:23:20.692Z,97465.03
2022-10-30T16:25:47.780Z,97483.78
2022-10-30T16:28:33.003Z,97486.91
2022-10-30T16:31:07.252Z,97486.28
2022-10-30T16:33:35.271Z,97491.06
2022-10-30T16:36:05.707Z,97483.16
2022-10-30T16:38:37.040Z,97483.16
2022-10-30T16:41:07.818Z,97490.63
2022-10-30T16:43:34.834Z,97456.63
2022-10-30T16:46:10.163Z,97447.97
2022-10-30T16:48:36.705Z,97440.78
2022-10-30T16:51:04.074Z,97418.22
2022-10-30T16:53:31.347Z,97407.38
2022-10-30T16:55:58.764Z,97373.97
2022-10-30T16:58:29.208Z,97340.84
2022-10-30T17:00:57.592Z,97370.44
2022-10-30T17:03:26.589Z,97365.56
2022-10-30T17:05:57.017Z,97370.13
2022-10-30T17:08:23.463Z,97359.22
2022-10-30T17:11:22.438Z,97349.00
2022-10-30T17:13:54.945Z,97345.59
2022-10-30T17:16:26.347Z,97331.47
2022-10-30T17:18:54.066Z,97358.63
2022-10-30T17:21:23.226Z,97350.41
2022-10-30T17:23:51.829Z,97321.34
2022-10-30T17:26:19.018Z,97313.91
2022-10-30T17:28:46.725Z,97298.81
2022-10-30T17:31:19.281Z,97284.91
2022-10-30T17:33:46.671Z,97311.31
2022-10-30T17:36:15.786Z,97325.59
2022-10-30T17:38:42.292Z,97326.34
2022-10-30T17:41:14.677Z,97332.56
2022-10-30T17:43:49.087Z,97312.47
2022-10-30T17:46:20.104Z,97330.50
2022-10-30T17:48:47.585Z,97316.50
2022-10-30T17:51:14.487Z,97278.63
2022-10-30T17:53:41.194Z,97265.56
2022-10-30T17:56:21.862Z,97272.25
2022-10-30T17:58:48.430Z,97258.91
2022-10-30T18:01:22.598Z,97231.69
2022-10-30T18:03:50.353Z,97198.66
2022-10-30T18:06:18.330Z,97213.09
2022-10-30T18:08:47.916Z,97238.13
2022-10-30T18:11:19.997Z,97236.09
2022-10-30T18:13:47.247Z,97214.75
2022-10-30T18:16:14.757Z,97225.41
2022-10-30T18:18:41.624Z,97279.56
2022-10-30T18:21:18.058Z,97262.16
2022-10-30T18:23:52.223Z,97268.00
2022-10-30T18:26:20.886Z,97266.69
2022-10-30T18:28:48.097Z,97239.13
2022-10-30T18:31:16.270Z,97240.72
2022-10-30T18:33:43.111Z,97214.16
2022-10-30T18:36:16.978Z,97209.09
2022-10-30T18:38:43.861Z,97211.44
2022-10-30T18:41:13.636Z,97211.22
2022-10-30T18:43:43.760Z,97208.78
2022-10-30T18:46:13.607Z,97189.03
2022-10-30T18:48:40.152Z,97170.66
2022-10-30T18:51:14.475Z,97162.44
2022-10-30T18:53:40.987Z,97139.81
2022-10-30T18:56:09.895Z,97099.19
2022-10-30T18:58:36.380Z,97064.31
2022-10-30T19:01:18.388Z,97029.59
2022-10-30T19:03:46.272Z,97008.88
2022-10-30T19:06:15.554Z,97026.84
2022-10-30T19:08:42.015Z,97005.03
2022-10-30T19:11:12.228Z,97005.03
2022-10-30T19:13:40.404Z,97036.31
2022-10-30T19:16:09.892Z,97033.31
2022-10-30T19:18:39.460Z,97061.16
2022-10-30T19:21:09.114Z,97061.50
2022-10-30T19:23:39.529Z,97052.88
2022-10-30T19:26:06.299Z,97026.50
2022-10-30T19:28:33.295Z,96968.06
2022-10-30T19:30:59.871Z,96943.78
2022-10-30T19:33:26.411Z,96907.66
2022-10-30T19:35:54.039Z,96891.19
2022-10-30T19:38:21.179Z,96870.09
2022-10-30T19:40:47.805Z,96849.69
2022-10-30T19:43:16.315Z,96836.44
2022-10-30T19:45:42.872Z,96813.09
2022-10-30T19:48:56.157Z,96803.78
2022-10-30T19:51:15.788Z,96792.84
2022-10-30T19:53:42.569Z,96771.81
2022-10-30T19:56:10.214Z,96754.28
2022-10-30T19:58:37.289Z,96739.84
2022-10-30T20:01:03.835Z,96718.16
2022-10-30T20:03:31.286Z,96712.00
2022-10-30T20:05:57.944Z,96714.78
2022-10-30T20:08:25.081Z,96703.81
2022-10-30T20:10:55.855Z,96680.09
2022-10-30T20:13:26.010Z,96682.13
2022-10-30T20:15:53.179Z,96658.81
2022-10-30T20:18:20.843Z,96629.47
2022-10-30T20:20:54.872Z,96625.91
2022-10-30T20:23:22.295Z,96615.59
2022-10-30T20:25:49.618Z,96617.69
2022-10-30T20:28:24.738Z,96620.06
2022-10-30T20:30:51.755Z,96607.72
2022-10-30T20:33:19.676Z,96595.28
2022-10-30T20:35:50.659Z,96591.81
2022-10-30T20:38:21.322Z,96577.53
2022-10-30T20:40:49.322Z,96562.50
2022-10-30T20:43:17.738Z,96567.78
2022-10-30T20:45:44.419Z,96552.38
2022-10-30T20:48:11.475Z,96548.75
2022-10-30T20:50:38.161Z,96559.66
2022-10-30T20:53:07.170Z,96553.47
2022-10-30T20:55:35.027Z,96557.22
2022-10-30T20:58:02.613Z,96560.59
2022-10-30T21:00:29.744Z,96536.09
2022-10-30T21:02:56.256Z,96534.34
2022-10-30T21:05:42.664Z,96545.28
2022-10-30T21:08:09.263Z,96535.56
2022-10-30T21:10:39.301Z,96547.28
2022-10-30T21:13:08.754Z,96554.47
2022-10-30T21:15:38.201Z,96517.38
2022-10-30T21:18:06.947Z,96478.81
2022-10-30T21:20:33.577Z,96476.38
2022-10-30T21:23:00.699Z,96466.69
2022-10-30T21:25:27.514Z,96467.38
2022-10-30T21:27:56.643Z,96456.16
2022-10-30T21:30:23.310Z,96435.84
2022-10-30T21:32:49.991Z,96423.78
2022-10-30T21:35:16.790Z,96421.81
2022-10-30T21:37:43.567Z,96398.78
2022-10-30T21:40:13.242Z,96404.06
2022-10-30T21:42:42.785Z,96401.03
2022-10-30T21:45:10.090Z,96392.13
2022-10-30T21:47:36.956Z,96395.78
2022-10-30T21:50:07.647Z,96399.78
2022-10-30T21:52:36.389Z,96393.56
2022-10-30T21:55:03.187Z,96418.19
2022-10-30T21:57:30.286Z,96421.31
2022-10-30T21:59:59.997Z,96409.72
2022-10-30T22:02:30.326Z,96420.69
2022-10-30T22:04:57.162Z,96407.63
2022-10-30T22:07:25.907Z,96401.88
2022-10-30T22:09:53.748Z,96419.78
2022-10-30T22:12:22.465Z,96402.00
2022-10-30T22:14:49.256Z,96415.00
2022-10-30T22:17:15.986Z,96435.25
2022-10-30T22:19:42.687Z,96412.94
2022-10-30T22:22:09.595Z,96415.63
2022-10-30T22:24:36.245Z,96412.59
2022-10-30T22:27:05.034Z,96388.78
2022-10-30T22:29:31.843Z,96398.53
2022-10-30T22:31:58.556Z,96395.56
2022-10-30T22:34:25.235Z,96384.94
2022-10-30T22:36:52.017Z,96398.13
2022-10-30T22:39:18.716Z,96402.94
2022-10-30T22:41:45.307Z,96410.97
2022-10-30T22:44:13.268Z,96435.28
2022-10-30T22:46:40.272Z,96428.31
2022-10-30T22:49:07.505Z,96431.03
2022-10-30T22:51:35.490Z,96429.53
2022-10-30T22:54:03.793Z,96438.59
2022-10-30T22:56:36.639Z,96440.81
2022-10-30T22:59:05.024Z,96445.47
2022-10-30T23:01:32.917Z,96449.88
2022-10-30T23:04:01.290Z,96438.53
2022-10-30T23:06:28.787Z,96426.44
2022-10-30T23:08:56.660Z,96430.09
2022-10-30T23:11:23.918Z,96417.47
2022-10-30T23:13:50.821Z,96407.06
2022-10-30T23:16:19.762Z,96412.59
2022-10-30T23:18:46.877Z,96411.03
2022-10-30T23:21:20.357Z,96390.44
2022-10-30T23:23:47.385Z,96398.25
2022-10-30T23:26:17.961Z,96405.06
2022-10-30T23:28:45.129Z,96402.88
2022-10-30T23:31:19.863Z,96377.03
2022-10-30T23:33:47.691Z,96384.94
2022-10-30T23:36:14.957Z,96388.97
2022-10-30T23:38:43.518Z,96390.00
2022-10-30T23:41:10.358Z,96416.41
2022-10-30T23:43:39.417Z,96443.81
2022-10-30T23:46:06.306Z,96448.06
2022-10-30T23:48:35.483Z,96442.88
2022-10-30T23:51:08.423Z,96453.28
2022-10-30T23:53:37.426Z,96462.50
2022-10-30T23:56:04.607Z,96458.97
2022-10-30T23:58:32.154Z,96463.53
